M I D A S
Marine Information and Data Acquisition System
Tripno 1284 of the Zeeleeuw from 2007-06-11 04:43:44 to 2007-06-11 13:47:03
Back to CruiseResearch ActivitiesStationsMapUnderway DataData graphs

EquipmentUnitsComment
TimeDGPSUTC
LatitudeDGPSDM.mWGS84
LongitudeDGPSDM.mWGS84
HeadingGyrodeg 
SOGDGPSknotsSpeed over ground
COGDGPSdegCourse over ground
DepthEcho soundermeters200 kHz
Missing or incorrect values are displayed as -999
Navigation data collected by the RV Zeeleeuw from 2007-06-11 04:46:55 to 2007-06-11 13:58:25
                                                                                    Next 1000 lines
Time Latitude Longitude Heading SOG COG Depth
2007-06-11 04:47:04 51°13.581 2°56.13 113.4 1 287 7.8
2007-06-11 04:47:09 51°13.582 2°56.127 113.4 1.4 292 8
2007-06-11 04:47:15 51°13.583 2°56.123 113.8 1.7 291 7.9
2007-06-11 04:47:20 51°13.584 2°56.119 114.4 2 292 -999
2007-06-11 04:47:26 51°13.586 2°56.113 115.1 2.3 294 -999
2007-06-11 04:47:31 51°13.587 2°56.108 115.5 2.6 295 -999
2007-06-11 04:47:37 51°13.589 2°56.101 115.6 2.9 294 -999
2007-06-11 04:47:43 51°13.591 2°56.094 115.9 3.3 295 -999
2007-06-11 04:47:48 51°13.593 2°56.087 116.1 3.6 294 -999
2007-06-11 04:47:53 51°13.595 2°56.079 116.4 3.9 295 -999
2007-06-11 04:47:58 51°13.598 2°56.07 116.7 4.2 294 -999
2007-06-11 04:48:03 51°13.6 2°56.061 117 4.5 295 -999
2007-06-11 04:48:08 51°13.603 2°56.051 117.4 4.7 295 -999
2007-06-11 04:48:13 51°13.606 2°56.042 117.9 5 295 -999
2007-06-11 04:48:18 51°13.609 2°56.031 118.5 5.2 296 -999
2007-06-11 04:48:23 51°13.612 2°56.021 119.4 5.4 297 -999
2007-06-11 04:48:29 51°13.617 2°56.008 120.1 5.5 297 -999
2007-06-11 04:48:33 51°13.619 2°56 120.6 5.6 298 -999
2007-06-11 04:48:38 51°13.623 2°55.989 121 5.7 298 -999
2007-06-11 04:48:43 51°13.627 2°55.977 121.2 5.8 298 -999
2007-06-11 04:48:48 51°13.631 2°55.966 121.4 5.9 298 -999
2007-06-11 04:48:53 51°13.635 2°55.954 121.5 6 299 -999
2007-06-11 04:48:58 51°13.639 2°55.942 121.5 6 299 -999
2007-06-11 04:49:03 51°13.643 2°55.931 121.2 6 299 -999
2007-06-11 04:49:08 51°13.647 2°55.919 120.9 5.9 298 -999
2007-06-11 04:49:14 51°13.651 2°55.905 120.4 5.8 298 -999
2007-06-11 04:49:18 51°13.654 2°55.896 119.8 5.8 297 -999
2007-06-11 04:49:23 51°13.658 2°55.885 119 5.7 297 -999
2007-06-11 04:49:28 51°13.661 2°55.873 118.2 5.6 296 -999
2007-06-11 04:49:33 51°13.665 2°55.862 117.3 5.5 295 -999
2007-06-11 04:49:39 51°13.668 2°55.849 116.3 5.2 294 -999
2007-06-11 04:49:43 51°13.67 2°55.841 115 5 293 -999
2007-06-11 04:49:48 51°13.673 2°55.832 113.7 4.7 291 -999
2007-06-11 04:49:53 51°13.675 2°55.822 112.3 4.5 290 -999
2007-06-11 04:49:58 51°13.677 2°55.813 111.2 4.3 289 10.2
2007-06-11 04:50:03 51°13.679 2°55.805 110.1 4.1 289 10.2
2007-06-11 04:50:08 51°13.68 2°55.796 109.3 3.9 287 10
2007-06-11 04:50:13 51°13.682 2°55.789 107.9 3.7 287 10
2007-06-11 04:50:18 51°13.683 2°55.782 106.6 3.2 285 10.2
2007-06-11 04:50:23 51°13.684 2°55.776 104.6 2.8 283 10.3
2007-06-11 04:50:28 51°13.684 2°55.771 102.8 2.5 283 10.5
2007-06-11 04:50:33 51°13.685 2°55.766 100 2.4 280 10.6
2007-06-11 04:50:37 51°13.686 2°55.761 97.9 2.2 278 10.6
2007-06-11 04:50:42 51°13.686 2°55.757 96.1 2.1 276 10.6
2007-06-11 04:50:47 51°13.686 2°55.753 93.4 1.9 275 10.5
2007-06-11 04:50:52 51°13.686 2°55.749 90.9 1.7 272 -999
2007-06-11 04:50:57 51°13.686 2°55.745 89.1 1.6 272 -999
2007-06-11 04:51:03 51°13.686 2°55.743 86.3 0.7 264 -999
2007-06-11 04:51:09 51°13.687 2°55.742 82.1 0.6 292 -999
2007-06-11 04:51:13 51°13.687 2°55.741 77 0.2 282 -999
2007-06-11 04:51:18 51°13.687 2°55.741 73 0.3 347 11
2007-06-11 04:51:23 51°13.688 2°55.741 68.6 0.3 26 -999
2007-06-11 04:51:28 51°13.688 2°55.742 65 0.6 27 -999
2007-06-11 04:51:33 51°13.689 2°55.743 60 0.7 38 -999
2007-06-11 04:51:38 51°13.69 2°55.744 55.1 1 32 -999
2007-06-11 04:51:43 51°13.691 2°55.745 50.1 1.1 35 -999
2007-06-11 04:51:48 51°13.693 2°55.746 45.3 1.3 29 -999
2007-06-11 04:51:53 51°13.695 2°55.748 40.5 1.4 28 -999
2007-06-11 04:51:58 51°13.697 2°55.749 36.5 1.5 23 -999
2007-06-11 04:52:03 51°13.699 2°55.751 32.6 1.7 19 11.3
2007-06-11 04:52:08 51°13.701 2°55.752 28.7 1.8 16 11.4
2007-06-11 04:52:12 51°13.703 2°55.752 24 1.9 11 11.7
2007-06-11 04:52:17 51°13.706 2°55.753 19.3 2 10 11.6
2007-06-11 04:52:22 51°13.709 2°55.754 14.7 2.1 4 11.7
2007-06-11 04:52:27 51°13.712 2°55.754 10.1 2.2 2 11.8
2007-06-11 04:52:32 51°13.715 2°55.753 5.5 2.3 355 12
2007-06-11 04:52:37 51°13.718 2°55.752 0.9 2.5 351 12.2
2007-06-11 04:52:42 51°13.722 2°55.751 356 2.6 345 11.9
2007-06-11 04:52:46 51°13.725 2°55.749 350.5 2.8 340 11.8
2007-06-11 04:52:51 51°13.728 2°55.746 344.7 3 335 11.6
2007-06-11 04:52:56 51°13.732 2°55.743 338.9 3.3 331 11.6
2007-06-11 04:53:01 51°13.736 2°55.738 334 3.7 327 11.3
2007-06-11 04:53:06 51°13.741 2°55.733 330.6 4 325 11.1
2007-06-11 04:53:11 51°13.745 2°55.728 328.5 4.2 324 10.9
2007-06-11 04:53:15 51°13.749 2°55.723 327 4.4 323 10.8
2007-06-11 04:53:20 51°13.754 2°55.717 326 4.6 322 10.8
2007-06-11 04:53:25 51°13.76 2°55.711 325.8 4.8 323 10.5
2007-06-11 04:53:30 51°13.765 2°55.704 326.1 5 323 10.5
2007-06-11 04:53:35 51°13.771 2°55.698 326.9 5.2 324 10.7
2007-06-11 04:53:40 51°13.777 2°55.691 328.2 5.4 325 10.8
2007-06-11 04:53:44 51°13.782 2°55.686 329.9 5.4 327 10.6
2007-06-11 04:53:49 51°13.789 2°55.679 331.6 5.6 329 10.7
2007-06-11 04:53:55 51°13.797 2°55.672 332.9 5.7 330 10.6
2007-06-11 04:53:59 51°13.803 2°55.667 334.5 5.8 331 10.6
2007-06-11 04:54:04 51°13.81 2°55.661 336.1 5.9 333 10.5
2007-06-11 04:54:09 51°13.818 2°55.656 337.4 5.9 334 10.8
2007-06-11 04:54:15 51°13.827 2°55.649 337.9 6 335 10.8
2007-06-11 04:54:20 51°13.834 2°55.643 338.8 6.1 335 10.8
2007-06-11 04:54:24 51°13.841 2°55.639 339.4 6.2 336 10.9
2007-06-11 04:54:29 51°13.848 2°55.633 340 6.2 336 10.8
2007-06-11 04:54:34 51°13.856 2°55.628 340.4 6.2 336 10.8
2007-06-11 04:54:40 51°13.866 2°55.621 340.6 6.3 337 10.8
2007-06-11 04:54:44 51°13.872 2°55.617 340.8 6.3 337 10.7
2007-06-11 04:54:49 51°13.881 2°55.611 341.2 6.4 337 10.8
2007-06-11 04:54:55 51°13.89 2°55.605 341.3 6.4 337 10.8
2007-06-11 04:55:00 51°13.899 2°55.599 341.4 6.4 337 10.8
2007-06-11 04:55:04 51°13.905 2°55.595 341.3 6.5 337 10.8
2007-06-11 04:55:09 51°13.914 2°55.59 341.3 6.5 337 10.8
2007-06-11 04:55:14 51°13.922 2°55.584 341.2 6.5 337 10.7
2007-06-11 04:55:19 51°13.93 2°55.578 341.2 6.6 336 10.8
2007-06-11 04:55:24 51°13.939 2°55.573 341.2 6.6 337 10.8
2007-06-11 04:55:30 51°13.949 2°55.566 341.4 6.6 337 10.7
2007-06-11 04:55:35 51°13.957 2°55.56 341.7 6.6 338 10.7
2007-06-11 04:55:39 51°13.964 2°55.556 342 6.7 338 10.7
2007-06-11 04:55:44 51°13.973 2°55.55 342.1 6.9 338 10.6
2007-06-11 04:55:50 51°13.984 2°55.543 342.2 7.2 338 -999
2007-06-11 04:55:55 51°13.994 2°55.536 342.1 7.5 338 10.7
2007-06-11 04:56:00 51°14.004 2°55.53 342.1 7.7 338 -999
2007-06-11 04:56:05 51°14.014 2°55.523 342.1 7.9 338 10.7
2007-06-11 04:56:10 51°14.024 2°55.517 342.1 8 338 10.8
2007-06-11 04:56:15 51°14.035 2°55.51 341.8 8.2 338 10.7
2007-06-11 04:56:19 51°14.044 2°55.505 341.8 8.4 338 10.7
2007-06-11 04:56:24 51°14.055 2°55.498 341.9 8.5 337 10.7
2007-06-11 04:56:29 51°14.065 2°55.489 340.2 8.5 334 10.7
2007-06-11 04:56:35 51°14.078 2°55.479 338.7 8.6 333 10.8
2007-06-11 04:56:39 51°14.087 2°55.472 337.6 8.8 332 10.8
2007-06-11 04:56:44 51°14.097 2°55.462 336.7 9.1 332 10.8
2007-06-11 04:56:50 51°14.111 2°55.45 335.8 9.2 331 10.8
2007-06-11 04:56:55 51°14.122 2°55.44 335.3 9.3 331 10.8
2007-06-11 04:57:00 51°14.133 2°55.43 335.1 9.4 331 -999
2007-06-11 04:57:04 51°14.143 2°55.422 334.6 9.6 330 10.8
2007-06-11 04:57:10 51°14.156 2°55.408 333.9 9.7 329 10.8
2007-06-11 04:57:15 51°14.168 2°55.397 332.4 9.7 326 4.7
2007-06-11 04:57:20 51°14.178 2°55.384 330.2 9.8 324 10.8
2007-06-11 04:57:25 51°14.189 2°55.371 328.4 9.8 323 10.8
2007-06-11 04:57:30 51°14.2 2°55.358 326.9 9.8 322 -999
2007-06-11 04:57:35 51°14.21 2°55.344 325.5 9.8 320 -999
2007-06-11 04:57:40 51°14.221 2°55.329 324.2 9.8 319 -999
2007-06-11 04:57:45 51°14.231 2°55.314 322.7 9.9 317 5.1
2007-06-11 04:57:51 51°14.243 2°55.296 321.5 10.2 316 -999
2007-06-11 04:57:56 51°14.253 2°55.279 320.5 10.4 315 -999
2007-06-11 04:58:01 51°14.263 2°55.262 319.1 10.5 313 10.7
2007-06-11 04:58:06 51°14.273 2°55.245 317.9 10.7 312 10.7
2007-06-11 04:58:11 51°14.283 2°55.227 317.1 10.8 312 10.7
2007-06-11 04:58:16 51°14.293 2°55.209 316.1 10.9 311 10.7
2007-06-11 04:58:20 51°14.301 2°55.194 315.1 11 310 10.7
2007-06-11 04:58:25 51°14.31 2°55.175 314.2 11.1 309 10.8
2007-06-11 04:58:30 51°14.32 2°55.156 313.4 11.3 309 10.5
2007-06-11 04:58:35 51°14.33 2°55.136 312.7 11.4 308 10.7
2007-06-11 04:58:40 51°14.339 2°55.116 311.7 11.5 307 10.6
2007-06-11 04:58:45 51°14.349 2°55.095 311.3 11.6 307 10.7
2007-06-11 04:58:49 51°14.357 2°55.079 311 11.6 307 10.7
2007-06-11 04:58:55 51°14.369 2°55.054 311 11.7 308 10.5
2007-06-11 04:58:59 51°14.377 2°55.038 311.7 11.8 308 10.6
2007-06-11 04:59:04 51°14.387 2°55.017 312.6 11.9 309 10.5
2007-06-11 04:59:09 51°14.398 2°54.997 313.9 12.1 311 10.5
2007-06-11 04:59:14 51°14.41 2°54.977 315 12.2 313 10.6
2007-06-11 04:59:19 51°14.422 2°54.957 317.1 12.4 314 10.5
2007-06-11 04:59:24 51°14.434 2°54.938 318.6 12.6 316 10.5
2007-06-11 04:59:30 51°14.449 2°54.915 320.7 12.7 317 10.5
2007-06-11 04:59:34 51°14.46 2°54.899 321.7 12.8 317 10.3
2007-06-11 04:59:39 51°14.472 2°54.879 321.5 12.8 315 10
2007-06-11 04:59:44 51°14.485 2°54.86 320.8 12.8 316 9.7
2007-06-11 04:59:50 51°14.5 2°54.835 320.8 12.9 314 9.4
2007-06-11 04:59:54 51°14.51 2°54.82 320.9 12.8 317 9.4
2007-06-11 04:59:59 51°14.523 2°54.8 322 12.9 316 9.3
2007-06-11 05:00:04 51°14.536 2°54.781 322.9 12.9 318 9.2
2007-06-11 05:00:10 51°14.553 2°54.759 324.3 12.9 319 9.1
2007-06-11 05:00:15 51°14.566 2°54.741 325 12.9 320 9.1
2007-06-11 05:00:19 51°14.577 2°54.726 325.6 12.9 320 9
2007-06-11 05:00:24 51°14.591 2°54.708 326.5 12.9 321 9.1
2007-06-11 05:00:29 51°14.605 2°54.69 327.6 12.9 322 9.1
2007-06-11 05:00:35 51°14.622 2°54.669 328.3 13 323 9.1
2007-06-11 05:00:39 51°14.634 2°54.655 329.2 13 323 9.1
2007-06-11 05:00:44 51°14.648 2°54.638 329.7 13 323 9
2007-06-11 05:00:50 51°14.666 2°54.618 330.2 13 324 9.1
2007-06-11 05:00:55 51°14.68 2°54.601 330.6 13 324 9.2
2007-06-11 05:00:59 51°14.691 2°54.588 331 13 325 9.3
2007-06-11 05:01:04 51°14.706 2°54.571 331.2 13.1 324 9.3
2007-06-11 05:01:09 51°14.721 2°54.555 331.2 13 324 9.4
2007-06-11 05:01:15 51°14.739 2°54.534 330.9 13 324 9.3
2007-06-11 05:01:20 51°14.753 2°54.517 330.3 13 323 9.1
2007-06-11 05:01:24 51°14.764 2°54.503 329.7 13 322 9.1
2007-06-11 05:01:29 51°14.779 2°54.485 328.9 13 322 9
2007-06-11 05:01:34 51°14.793 2°54.467 328.4 13 321 9
2007-06-11 05:01:39 51°14.807 2°54.449 327.8 13 321 8.9
2007-06-11 05:01:44 51°14.821 2°54.431 327.8 13 321 8.9
2007-06-11 05:01:49 51°14.835 2°54.413 327.9 13 322 8.9
2007-06-11 05:01:54 51°14.849 2°54.395 328.2 12.9 321 8.8
2007-06-11 05:01:59 51°14.863 2°54.377 328.2 13 322 9
2007-06-11 05:02:04 51°14.877 2°54.36 328.6 13 322 8.9
2007-06-11 05:02:10 51°14.895 2°54.339 329.2 13 324 8.7
2007-06-11 05:02:14 51°14.906 2°54.326 330 12.9 323 8.6
2007-06-11 05:02:19 51°14.921 2°54.309 330.3 12.9 323 8.3
2007-06-11 05:02:24 51°14.935 2°54.292 330.4 12.8 323 8.4
2007-06-11 05:02:30 51°14.952 2°54.272 330.5 12.7 323 8.3
2007-06-11 05:02:35 51°14.966 2°54.254 330.5 12.8 323 8.2
2007-06-11 05:02:39 51°14.977 2°54.241 330.4 12.7 323 8.1
2007-06-11 05:02:44 51°14.991 2°54.224 330.4 12.8 323 8.2
2007-06-11 05:02:50 51°15.008 2°54.204 330.4 12.7 323 8
2007-06-11 05:02:55 51°15.022 2°54.187 330.8 12.8 324 8.1
2007-06-11 05:02:59 51°15.034 2°54.174 331.1 12.8 324 8.1
2007-06-11 05:03:04 51°15.049 2°54.157 331.5 12.8 324 8.3
2007-06-11 05:03:10 51°15.066 2°54.137 331.5 12.9 324 8.3
2007-06-11 05:03:15 51°15.081 2°54.121 331.5 12.9 324 8.5
2007-06-11 05:03:19 51°15.092 2°54.107 330.8 13 323 8.5
2007-06-11 05:03:24 51°15.107 2°54.09 330.6 13 324 8.5
2007-06-11 05:03:29 51°15.121 2°54.073 331.2 13 324 8.6
2007-06-11 05:03:35 51°15.139 2°54.053 331.9 13 325 8.6
2007-06-11 05:03:39 51°15.151 2°54.041 333 13 327 8.6
2007-06-11 05:03:44 51°15.166 2°54.025 333.8 12.9 327 8.6
2007-06-11 05:03:49 51°15.181 2°54.009 334.5 12.9 327 8.6
2007-06-11 05:03:55 51°15.199 2°53.991 334.6 12.9 327 8.7
2007-06-11 05:04:00 51°15.214 2°53.975 334.6 12.9 327 8.9
2007-06-11 05:04:04 51°15.226 2°53.963 334.5 12.9 328 9
2007-06-11 05:04:09 51°15.241 2°53.948 334.8 13 328 9
2007-06-11 05:04:14 51°15.257 2°53.932 334.8 13 328 9
2007-06-11 05:04:19 51°15.272 2°53.916 334.6 13 326 9
2007-06-11 05:04:24 51°15.287 2°53.9 333.9 13 326 9.1
2007-06-11 05:04:30 51°15.304 2°53.88 333.4 13 325 9.3
2007-06-11 05:04:34 51°15.316 2°53.867 332.7 13.1 324 9.2
2007-06-11 05:04:39 51°15.331 2°53.851 332.3 13 324 9.3
2007-06-11 05:04:44 51°15.345 2°53.833 331.9 13.1 324 9.3
2007-06-11 05:04:50 51°15.363 2°53.813 331.7 13 324 9.4
2007-06-11 05:04:54 51°15.374 2°53.799 331.7 13 324 9.4
2007-06-11 05:04:59 51°15.389 2°53.783 332.2 13 325 9.5
2007-06-11 05:05:04 51°15.404 2°53.766 332.6 13 325 9.5
2007-06-11 05:05:10 51°15.422 2°53.747 333.1 13 326 9.6
2007-06-11 05:05:15 51°15.436 2°53.73 333.4 12.9 326 9.6
2007-06-11 05:05:19 51°15.448 2°53.718 334.2 13 327 9.7
2007-06-11 05:05:24 51°15.463 2°53.702 335.3 13 327 9.8
2007-06-11 05:05:30 51°15.482 2°53.684 336.5 12.9 329 9.8
2007-06-11 05:05:35 51°15.497 2°53.67 337.4 12.9 329 9.9
2007-06-11 05:05:39 51°15.509 2°53.658 337.9 12.9 329 9.9
2007-06-11 05:05:44 51°15.525 2°53.644 338.2 12.9 330 9.9
2007-06-11 05:05:49 51°15.54 2°53.63 338.6 12.9 330 10
2007-06-11 05:05:55 51°15.559 2°53.613 338.9 12.8 332 10
2007-06-11 05:05:59 51°15.572 2°53.603 339.7 12.8 332 10.1
2007-06-11 05:06:04 51°15.588 2°53.589 340.4 12.8 333 10.1
2007-06-11 05:06:09 51°15.603 2°53.577 341.1 12.9 333 10.2
2007-06-11 05:06:14 51°15.619 2°53.564 341.4 12.8 333 10.2
2007-06-11 05:06:20 51°15.638 2°53.549 341.5 12.8 333 10.2
2007-06-11 05:06:24 51°15.651 2°53.538 341.5 12.9 333 10.3
2007-06-11 05:06:29 51°15.667 2°53.525 341.4 12.9 332 10.3
2007-06-11 05:06:34 51°15.683 2°53.512 341.1 12.9 333 10.4
2007-06-11 05:06:39 51°15.699 2°53.499 340.8 12.8 332 10.5
2007-06-11 05:06:44 51°15.714 2°53.486 340.4 12.9 332 10.5
2007-06-11 05:06:49 51°15.73 2°53.472 340.1 12.9 332 10.5
2007-06-11 05:06:55 51°15.749 2°53.455 339.8 12.9 331 10.5
2007-06-11 05:06:59 51°15.761 2°53.444 339.6 12.9 331 10.6
2007-06-11 05:07:04 51°15.777 2°53.43 339.6 12.9 331 10.7
2007-06-11 05:07:10 51°15.795 2°53.413 339.4 12.8 330 10.7
2007-06-11 05:07:15 51°15.811 2°53.399 339.1 12.9 330 10.7
2007-06-11 05:07:19 51°15.823 2°53.387 338.9 12.9 330 10.8
2007-06-11 05:07:24 51°15.839 2°53.374 339.5 12.8 331 10.8
2007-06-11 05:07:30 51°15.858 2°53.358 339.9 12.8 332 10.9
2007-06-11 05:07:35 51°15.873 2°53.344 340.4 12.8 332 10.9
2007-06-11 05:07:39 51°15.886 2°53.334 340.9 12.8 333 10.9
2007-06-11 05:07:44 51°15.902 2°53.321 341.3 12.8 333 11
2007-06-11 05:07:49 51°15.918 2°53.309 341.8 12.8 334 11
2007-06-11 05:07:55 51°15.937 2°53.294 341.8 12.8 334 11
2007-06-11 05:07:59 51°15.95 2°53.284 341.7 12.8 333 11.1
2007-06-11 05:08:04 51°15.965 2°53.271 341.1 12.8 333 11
2007-06-11 05:08:09 51°15.981 2°53.258 340.5 12.8 332 11.1
2007-06-11 05:08:14 51°15.997 2°53.244 340 12.8 332 11.2
2007-06-11 05:08:20 51°16.015 2°53.228 339.7 12.8 332 11.2
2007-06-11 05:08:24 51°16.028 2°53.217 339.5 12.8 332 11.2
2007-06-11 05:08:29 51°16.044 2°53.204 339.5 12.8 332 11.3
2007-06-11 05:08:35 51°16.062 2°53.188 339.8 12.8 333 11.3
2007-06-11 05:08:40 51°16.078 2°53.176 340.2 12.8 333 11.3
2007-06-11 05:08:44 51°16.091 2°53.165 340.4 12.8 333 11.3
2007-06-11 05:08:49 51°16.107 2°53.152 340.7 12.8 333 11.4
2007-06-11 05:08:54 51°16.122 2°53.139 340.8 12.7 333 11.3
2007-06-11 05:08:59 51°16.138 2°53.127 340.9 12.7 334 11.3
2007-06-11 05:09:04 51°16.154 2°53.114 341 12.8 333 11.4
2007-06-11 05:09:10 51°16.173 2°53.099 341 12.8 333 11.4
2007-06-11 05:09:14 51°16.186 2°53.088 340.5 12.8 333 11.4
2007-06-11 05:09:19 51°16.201 2°53.076 340.2 12.8 333 11.4
2007-06-11 05:09:24 51°16.217 2°53.063 340 12.8 332 11.5
2007-06-11 05:09:30 51°16.236 2°53.047 339.9 12.8 333 11.4
2007-06-11 05:09:35 51°16.252 2°53.035 340.2 12.8 334 11.5
2007-06-11 05:09:39 51°16.265 2°53.025 341.3 12.8 335 11.4
2007-06-11 05:09:44 51°16.281 2°53.013 342.1 12.8 335 11.5
2007-06-11 05:09:49 51°16.297 2°53.001 342.7 12.7 336 11.5
2007-06-11 05:09:55 51°16.316 2°52.988 343.3 12.8 336 11.5
2007-06-11 05:09:59 51°16.329 2°52.979 343.7 12.7 337 11.6
2007-06-11 05:10:04 51°16.346 2°52.968 344 12.7 337 11.5
2007-06-11 05:10:09 51°16.362 2°52.957 344 12.7 337 11.5
2007-06-11 05:10:15 51°16.381 2°52.944 344 12.7 337 11.5
2007-06-11 05:10:19 51°16.394 2°52.934 344 12.7 337 11.6
2007-06-11 05:10:24 51°16.41 2°52.923 343.9 12.7 336 11.5
2007-06-11 05:10:29 51°16.426 2°52.912 343.7 12.7 337 11.5
2007-06-11 05:10:34 51°16.443 2°52.901 343.6 12.7 336 11.5
2007-06-11 05:10:40 51°16.462 2°52.887 343.4 12.7 336 11.4
2007-06-11 05:10:44 51°16.475 2°52.878 343.2 12.8 336 11.4
2007-06-11 05:10:49 51°16.491 2°52.867 342.9 12.7 336 11.3
2007-06-11 05:10:54 51°16.507 2°52.855 343 12.8 336 11.3
2007-06-11 05:11:00 51°16.526 2°52.841 343.1 12.7 337 11.2
2007-06-11 05:11:04 51°16.539 2°52.832 343.3 12.7 337 11.2
2007-06-11 05:11:09 51°16.556 2°52.821 343.4 12.7 337 11.1
2007-06-11 05:11:14 51°16.572 2°52.81 343.4 12.7 337 11
2007-06-11 05:11:19 51°16.588 2°52.799 343.5 12.7 336 11.1
2007-06-11 05:11:24 51°16.604 2°52.788 343.5 12.7 336 11
2007-06-11 05:11:30 51°16.623 2°52.774 343.4 12.7 336 11
2007-06-11 05:11:35 51°16.639 2°52.763 343.3 12.7 336 10.9
2007-06-11 05:11:39 51°16.652 2°52.754 343.5 12.6 337 10.8
2007-06-11 05:11:44 51°16.668 2°52.743 343.7 12.6 336 10.6
2007-06-11 05:11:50 51°16.688 2°52.73 343.5 12.6 336 10.5
2007-06-11 05:11:55 51°16.704 2°52.719 343.2 12.6 336 10.4
2007-06-11 05:11:59 51°16.716 2°52.71 343.2 12.6 336 10.2
2007-06-11 05:12:04 51°16.733 2°52.698 342.8 12.6 335 9.8
2007-06-11 05:12:09 51°16.749 2°52.687 342.8 12.5 336 9.5
2007-06-11 05:12:15 51°16.768 2°52.674 343.1 12.5 336 9.4
2007-06-11 05:12:19 51°16.78 2°52.665 343.6 12.4 337 9.5
2007-06-11 05:12:24 51°16.796 2°52.655 343.9 12.4 337 9.5
2007-06-11 05:12:29 51°16.812 2°52.645 344.9 12.5 339 9.5
2007-06-11 05:12:35 51°16.832 2°52.633 346.2 12.5 340 9.5
2007-06-11 05:12:40 51°16.848 2°52.624 347.1 12.4 341 9.2
2007-06-11 05:12:44 51°16.861 2°52.616 348 12.4 341 9.3
2007-06-11 05:12:49 51°16.877 2°52.608 348.3 12.4 341 9.4
2007-06-11 05:12:55 51°16.897 2°52.598 348.8 12.4 342 9.5
2007-06-11 05:13:00 51°16.913 2°52.589 349.1 12.4 342 9.6
2007-06-11 05:13:04 51°16.927 2°52.583 349.4 12.4 342 9.7
2007-06-11 05:13:09 51°16.943 2°52.574 349.6 12.5 342 9.7
2007-06-11 05:13:14 51°16.959 2°52.565 349.4 12.5 341 9.7
2007-06-11 05:13:19 51°16.976 2°52.557 349.1 12.5 342 9.4
2007-06-11 05:13:24 51°16.992 2°52.547 348.9 12.5 341 9.5
2007-06-11 05:13:30 51°17.012 2°52.537 348.6 12.4 341 9.3
2007-06-11 05:13:34 51°17.025 2°52.529 348.4 12.4 341 9.3
2007-06-11 05:13:39 51°17.041 2°52.521 348.3 12.4 341 9.3
2007-06-11 05:13:44 51°17.057 2°52.512 348.5 12.4 341 9.4
2007-06-11 05:13:50 51°17.077 2°52.502 348.9 12.4 342 9.5
2007-06-11 05:13:55 51°17.094 2°52.494 349.1 12.4 342 9.4
2007-06-11 05:13:59 51°17.107 2°52.487 349.1 12.4 342 9.4
2007-06-11 05:14:04 51°17.123 2°52.478 349.1 12.4 342 9.6
2007-06-11 05:14:10 51°17.142 2°52.467 349 12.4 341 9.6
2007-06-11 05:14:15 51°17.159 2°52.458 348.7 12.5 341 9.7
2007-06-11 05:14:19 51°17.172 2°52.451 348.6 12.5 341 9.6
2007-06-11 05:14:24 51°17.188 2°52.441 348.3 12.5 340 9.7
2007-06-11 05:14:30 51°17.207 2°52.43 348.1 12.5 340 9.7
2007-06-11 05:14:35 51°17.224 2°52.42 347.7 12.5 340 9.8
2007-06-11 05:14:39 51°17.237 2°52.413 347.6 12.5 340 9.9
2007-06-11 05:14:44 51°17.253 2°52.404 347.6 12.5 340 10
2007-06-11 05:14:49 51°17.269 2°52.395 348 12.4 341 10
2007-06-11 05:14:55 51°17.289 2°52.383 348.3 12.5 341 10
2007-06-11 05:15:00 51°17.305 2°52.375 348.3 12.5 341 10
2007-06-11 05:15:04 51°17.318 2°52.367 348.4 12.4 341 10.1
2007-06-11 05:15:09 51°17.335 2°52.359 348.6 12.5 341 10
2007-06-11 05:15:14 51°17.352 2°52.351 348.6 12.4 341 10.2
2007-06-11 05:15:20 51°17.371 2°52.34 348.7 12.4 341 10.1
2007-06-11 05:15:24 51°17.384 2°52.332 348.4 12.5 340 10.2
2007-06-11 05:15:29 51°17.401 2°52.323 348.3 12.5 341 10.1
2007-06-11 05:15:34 51°17.417 2°52.313 348.3 12.5 340 10.2
2007-06-11 05:15:40 51°17.436 2°52.302 348.1 12.4 341 10.2
2007-06-11 05:15:44 51°17.45 2°52.295 348.3 12.5 341 10.3
2007-06-11 05:15:50 51°17.469 2°52.285 348.6 12.5 341 10.1
2007-06-11 05:15:55 51°17.486 2°52.276 348.7 12.4 341 10.1
2007-06-11 05:15:59 51°17.499 2°52.269 348.8 12.4 341 10.3
2007-06-11 05:16:04 51°17.515 2°52.26 348.8 12.4 341 10.2
2007-06-11 05:16:10 51°17.535 2°52.248 348.5 12.4 341 10.1
2007-06-11 05:16:15 51°17.551 2°52.239 348.4 12.4 341 10.3
2007-06-11 05:16:19 51°17.564 2°52.232 348.3 12.4 340 10.2
2007-06-11 05:16:24 51°17.58 2°52.223 348.1 12.4 341 10.2
2007-06-11 05:16:30 51°17.6 2°52.212 348.1 12.4 341 10.2
2007-06-11 05:16:35 51°17.616 2°52.203 348.1 12.4 341 10.1
2007-06-11 05:16:39 51°17.629 2°52.196 348.6 12.4 341 10.2
2007-06-11 05:16:44 51°17.645 2°52.187 348.7 12.4 341 10.1
2007-06-11 05:16:49 51°17.661 2°52.178 348.7 12.4 341 10.2
2007-06-11 05:16:55 51°17.681 2°52.168 348.9 12.4 341 10.2
2007-06-11 05:16:59 51°17.694 2°52.161 348.7 12.4 341 10.1
2007-06-11 05:17:04 51°17.71 2°52.152 348.7 12.4 341 10.1
2007-06-11 05:17:09 51°17.726 2°52.143 349 12.4 342 10
2007-06-11 05:17:15 51°17.746 2°52.133 349.2 12.4 342 10.2
2007-06-11 05:17:20 51°17.763 2°52.125 349.7 12.4 342 10.2
2007-06-11 05:17:24 51°17.776 2°52.118 349.8 12.4 342 10.3
2007-06-11 05:17:29 51°17.792 2°52.11 349.8 12.4 342 10.1
2007-06-11 05:17:35 51°17.812 2°52.1 349.8 12.4 342 10.2
2007-06-11 05:17:39 51°17.825 2°52.093 349.4 12.4 342 10.3
2007-06-11 05:17:44 51°17.841 2°52.084 349.2 12.4 341 10.2
2007-06-11 05:17:50 51°17.861 2°52.074 349.1 12.4 341 10.2
2007-06-11 05:17:54 51°17.874 2°52.066 348.8 12.5 341 10.1
2007-06-11 05:17:59 51°17.89 2°52.057 348.6 12.5 341 10.3
2007-06-11 05:18:04 51°17.907 2°52.048 348.6 12.5 341 10.3
2007-06-11 05:18:10 51°17.926 2°52.038 348.7 12.4 342 10.1
2007-06-11 05:18:15 51°17.943 2°52.029 349.1 12.4 342 10.3
2007-06-11 05:18:19 51°17.955 2°52.022 349.3 12.5 342 10.2
2007-06-11 05:18:24 51°17.972 2°52.014 349.8 12.5 342 10.2
2007-06-11 05:18:30 51°17.991 2°52.004 349.8 12.5 342 10.4
2007-06-11 05:18:35 51°18.008 2°51.995 349.8 12.5 342 10.3
2007-06-11 05:18:39 51°18.021 2°51.988 349.3 12.5 342 10.1
2007-06-11 05:18:44 51°18.038 2°51.98 349.3 12.5 342 10.5
2007-06-11 05:18:50 51°18.058 2°51.969 349.1 12.5 342 10.5
2007-06-11 05:18:55 51°18.074 2°51.96 349.1 12.5 341 10.5
2007-06-11 05:18:59 51°18.087 2°51.953 348.9 12.5 342 10.6
2007-06-11 05:19:04 51°18.104 2°51.945 349.1 12.5 341 10.5
2007-06-11 05:19:10 51°18.123 2°51.934 349.1 12.5 342 10.7
2007-06-11 05:19:15 51°18.14 2°51.926 349.2 12.5 342 10.7
2007-06-11 05:19:19 51°18.153 2°51.919 349.5 12.5 342 10.5
2007-06-11 05:19:24 51°18.169 2°51.91 349.7 12.5 342 10.9
2007-06-11 05:19:29 51°18.186 2°51.902 349.7 12.5 342 10.8
2007-06-11 05:19:35 51°18.206 2°51.891 349.4 12.6 342 10.9
2007-06-11 05:19:40 51°18.222 2°51.883 349.1 12.5 342 10.9
2007-06-11 05:19:44 51°18.236 2°51.876 349.1 12.6 342 11
2007-06-11 05:19:49 51°18.252 2°51.867 349.3 12.5 342 11.1
2007-06-11 05:19:55 51°18.272 2°51.857 349.5 12.5 343 11.2
2007-06-11 05:20:00 51°18.289 2°51.849 349.7 12.6 342 11.2
2007-06-11 05:20:04 51°18.302 2°51.842 349.7 12.6 342 11.4
2007-06-11 05:20:09 51°18.318 2°51.833 349.6 12.6 342 11.4
2007-06-11 05:20:14 51°18.335 2°51.824 349.2 12.6 342 11.4
2007-06-11 05:20:19 51°18.352 2°51.816 349.1 12.6 342 11.5
2007-06-11 05:20:24 51°18.368 2°51.807 349.3 12.6 342 11.7
2007-06-11 05:20:30 51°18.388 2°51.797 349.5 12.6 343 11.7
2007-06-11 05:20:34 51°18.402 2°51.79 349.6 12.6 342 11.8
2007-06-11 05:20:39 51°18.418 2°51.782 349.6 12.6 342 11.8
2007-06-11 05:20:44 51°18.435 2°51.773 349.4 12.6 342 12
2007-06-11 05:20:50 51°18.455 2°51.763 349.4 12.6 342 12
2007-06-11 05:20:55 51°18.471 2°51.754 349.4 12.6 342 12.1
2007-06-11 05:20:59 51°18.485 2°51.747 349.2 12.6 342 12.2
2007-06-11 05:21:04 51°18.501 2°51.738 349.2 12.7 342 12.3
2007-06-11 05:21:10 51°18.521 2°51.728 349.3 12.7 342 12.4
2007-06-11 05:21:15 51°18.538 2°51.719 349.4 12.6 342 12.5
2007-06-11 05:21:19 51°18.551 2°51.712 349.5 12.7 342 12.6
2007-06-11 05:21:24 51°18.568 2°51.704 349.5 12.7 342 12.8
2007-06-11 05:21:29 51°18.585 2°51.695 349.7 12.6 342 12.8
2007-06-11 05:21:35 51°18.604 2°51.685 349.3 12.6 342 12.9
2007-06-11 05:21:39 51°18.618 2°51.677 349.1 12.7 341 13
2007-06-11 05:21:44 51°18.635 2°51.669 348.8 12.6 342 13.2
2007-06-11 05:21:49 51°18.651 2°51.66 348.9 12.6 342 13.2
2007-06-11 05:21:54 51°18.667 2°51.651 349.1 12.6 341 13.2
2007-06-11 05:22:00 51°18.687 2°51.64 349.1 12.6 341 13.3
2007-06-11 05:22:04 51°18.701 2°51.632 348.8 12.6 340 13.5
2007-06-11 05:22:09 51°18.717 2°51.623 348.6 12.6 341 13.5
2007-06-11 05:22:14 51°18.734 2°51.614 348.8 12.6 341 13.7
2007-06-11 05:22:19 51°18.75 2°51.605 348.9 12.6 341 13.7
2007-06-11 05:22:25 51°18.77 2°51.595 349.2 12.6 342 13.7
2007-06-11 05:22:29 51°18.784 2°51.588 349.3 12.6 342 13.8
2007-06-11 05:22:34 51°18.8 2°51.579 349.7 12.6 342 13.9
2007-06-11 05:22:39 51°18.817 2°51.57 349.7 12.5 342 14
2007-06-11 05:22:44 51°18.833 2°51.562 349.7 12.6 342 14.1
2007-06-11 05:22:50 51°18.853 2°51.551 349.4 12.5 341 14.1
2007-06-11 05:22:55 51°18.869 2°51.542 349.2 12.6 341 14.2
2007-06-11 05:22:59 51°18.882 2°51.535 349.1 12.5 341 14.4
2007-06-11 05:23:04 51°18.899 2°51.525 348.9 12.6 341 14.4
2007-06-11 05:23:10 51°18.919 2°51.515 348.9 12.6 341 14.4
2007-06-11 05:23:15 51°18.935 2°51.506 349 12.6 342 14.5
2007-06-11 05:23:19 51°18.948 2°51.499 349.3 12.5 342 14.6
2007-06-11 05:23:24 51°18.965 2°51.49 349.3 12.6 341 14.5
2007-06-11 05:23:29 51°18.981 2°51.481 349.2 12.5 341 14.4
2007-06-11 05:23:35 51°19.001 2°51.47 348.8 12.6 340 14.6
2007-06-11 05:23:39 51°19.014 2°51.462 348.5 12.5 341 14.9
2007-06-11 05:23:44 51°19.03 2°51.453 348.6 12.5 341 14.8
2007-06-11 05:23:49 51°19.047 2°51.444 349.1 12.6 341 14.9
2007-06-11 05:23:55 51°19.067 2°51.434 349.3 12.5 341 15
2007-06-11 05:24:00 51°19.083 2°51.425 349.3 12.5 342 15
2007-06-11 05:24:04 51°19.097 2°51.419 349.4 12.5 342 15
2007-06-11 05:24:09 51°19.113 2°51.41 349.6 12.5 341 15
2007-06-11 05:24:15 51°19.133 2°51.399 349.3 12.5 341 15
2007-06-11 05:24:20 51°19.149 2°51.39 349.1 12.5 341 15
2007-06-11 05:24:24 51°19.163 2°51.382 349 12.6 341 15
2007-06-11 05:24:29 51°19.179 2°51.373 348.9 12.5 341 15.1
2007-06-11 05:24:34 51°19.196 2°51.364 349.1 12.5 341 15
2007-06-11 05:24:39 51°19.212 2°51.356 349.3 12.5 342 15.1
2007-06-11 05:24:44 51°19.229 2°51.347 349.5 12.6 341 15.1
2007-06-11 05:24:50 51°19.249 2°51.336 349.5 12.6 341 15
2007-06-11 05:24:54 51°19.262 2°51.329 349.6 12.6 341 15
2007-06-11 05:24:59 51°19.278 2°51.32 349.4 12.6 342 15.1
2007-06-11 05:25:04 51°19.295 2°51.311 349.4 12.6 342 15.1
2007-06-11 05:25:10 51°19.315 2°51.301 349.8 12.6 342 15.1
2007-06-11 05:25:15 51°19.332 2°51.292 349.8 12.6 341 15.1
2007-06-11 05:25:19 51°19.345 2°51.285 349.2 12.6 341 15
2007-06-11 05:25:24 51°19.362 2°51.275 349.1 12.7 340 15
2007-06-11 05:25:30 51°19.382 2°51.264 348.6 12.7 340 15
2007-06-11 05:25:35 51°19.398 2°51.255 348.5 12.6 341 15
2007-06-11 05:25:39 51°19.411 2°51.248 348.7 12.6 341 15
2007-06-11 05:25:44 51°19.428 2°51.239 349.8 12.5 343 14.9
2007-06-11 05:25:50 51°19.448 2°51.229 350.5 12.6 343 15
2007-06-11 05:25:55 51°19.465 2°51.222 351.5 12.6 345 14.9
2007-06-11 05:25:59 51°19.478 2°51.216 352.3 12.6 345 14.8
2007-06-11 05:26:04 51°19.495 2°51.21 353.1 12.5 347 14.8
2007-06-11 05:26:09 51°19.511 2°51.204 353.7 12.5 347 14.7
2007-06-11 05:26:15 51°19.532 2°51.197 354.1 12.5 348 14.7
2007-06-11 05:26:20 51°19.549 2°51.19 354.5 12.6 347 14.7
2007-06-11 05:26:24 51°19.562 2°51.185 354.3 12.5 346 14.6
2007-06-11 05:26:29 51°19.579 2°51.178 353.8 12.6 346 14.6
2007-06-11 05:26:34 51°19.596 2°51.171 353.4 12.6 346 14.5
2007-06-11 05:26:40 51°19.617 2°51.164 353.2 12.5 345 14.5
2007-06-11 05:26:44 51°19.63 2°51.158 353 12.6 345 14.3
2007-06-11 05:26:49 51°19.647 2°51.151 352.8 12.5 347 14
2007-06-11 05:26:54 51°19.664 2°51.144 353.4 12.5 347 13.9
2007-06-11 05:26:59 51°19.681 2°51.138 353.8 12.6 347 13.9
2007-06-11 05:27:04 51°19.698 2°51.132 354.1 12.6 348 13.6
2007-06-11 05:27:10 51°19.718 2°51.125 354.3 12.6 347 13.5
2007-06-11 05:27:15 51°19.735 2°51.118 354.1 12.5 346 13.3
2007-06-11 05:27:19 51°19.749 2°51.113 353.2 12.6 346 12.6
2007-06-11 05:27:24 51°19.765 2°51.106 352.9 12.5 346 12.4
2007-06-11 05:27:30 51°19.785 2°51.098 353 12.5 346 12.1
2007-06-11 05:27:35 51°19.802 2°51.092 353.4 12.5 347 12.1
2007-06-11 05:27:39 51°19.816 2°51.086 353.6 12.5 347 12.1
2007-06-11 05:27:44 51°19.833 2°51.08 353.5 12.6 347 12
2007-06-11 05:27:50 51°19.853 2°51.073 353.6 12.6 348 11.8
2007-06-11 05:27:55 51°19.87 2°51.067 353.9 12.6 348 12.2
2007-06-11 05:27:59 51°19.884 2°51.062 353.8 12.6 347 12.5
2007-06-11 05:28:04 51°19.901 2°51.055 353.6 12.6 346 12.4
2007-06-11 05:28:10 51°19.922 2°51.047 353 12.6 345 12.5
2007-06-11 05:28:15 51°19.939 2°51.039 352.3 12.6 344 12.2
2007-06-11 05:28:19 51°19.953 2°51.033 352 12.6 345 12.2
2007-06-11 05:28:24 51°19.969 2°51.026 352.2 12.6 345 12.3
2007-06-11 05:28:29 51°19.986 2°51.019 352.7 12.6 346 12.4
2007-06-11 05:28:35 51°20.006 2°51.011 353.4 12.6 346 12.6
2007-06-11 05:28:40 51°20.023 2°51.004 353.7 12.6 347 12.8
2007-06-11 05:28:44 51°20.037 2°51 354 12.6 347 13.1
2007-06-11 05:28:49 51°20.054 2°50.994 354.1 12.6 348 13.1
2007-06-11 05:28:54 51°20.071 2°50.987 354.1 12.6 347 13.4
2007-06-11 05:28:59 51°20.088 2°50.98 354 12.6 346 13.6
2007-06-11 05:29:04 51°20.104 2°50.973 353.4 12.6 345 13.7
2007-06-11 05:29:11 51°20.128 2°50.963 352.7 12.6 345 13.8
2007-06-11 05:29:14 51°20.139 2°50.958 352.5 12.6 345 14
2007-06-11 05:29:19 51°20.155 2°50.951 352.3 12.6 344 14.2
2007-06-11 05:29:24 51°20.172 2°50.943 352.4 12.6 344 14.2
2007-06-11 05:29:28 51°20.185 2°50.937 352.5 12.6 345 14.3
2007-06-11 05:29:34 51°20.205 2°50.928 352.8 12.6 345 14.3
2007-06-11 05:29:39 51°20.222 2°50.921 353.1 12.6 345 14.2
2007-06-11 05:29:44 51°20.239 2°50.915 353.5 12.6 346 14.2
2007-06-11 05:29:49 51°20.256 2°50.908 353.6 12.6 345 14.2
2007-06-11 05:29:54 51°20.272 2°50.901 353.7 12.6 345 14.2
2007-06-11 05:29:59 51°20.289 2°50.894 353.6 12.6 345 14
2007-06-11 05:30:04 51°20.306 2°50.887 353.6 12.6 345 14
2007-06-11 05:30:09 51°20.322 2°50.88 353.4 12.5 345 13.8
2007-06-11 05:30:14 51°20.339 2°50.872 353.3 12.6 345 13.8
2007-06-11 05:30:19 51°20.356 2°50.865 353.3 12.6 345 14.1
2007-06-11 05:30:24 51°20.373 2°50.857 353.5 12.6 345 14.3
2007-06-11 05:30:30 51°20.393 2°50.848 353.5 12.6 345 14.7
2007-06-11 05:30:34 51°20.406 2°50.843 353.4 12.6 345 15
2007-06-11 05:30:39 51°20.424 2°50.836 353.3 12.6 345 15.3
2007-06-11 05:30:44 51°20.442 2°50.829 353.3 12.6 345 15.6
2007-06-11 05:30:49 51°20.459 2°50.822 353.2 12.7 345 15.8
2007-06-11 05:30:54 51°20.476 2°50.814 353.2 12.7 344 16.1
2007-06-11 05:30:59 51°20.493 2°50.807 352.9 12.7 344 16.3
2007-06-11 05:31:04 51°20.51 2°50.799 352.7 12.7 344 16.6
2007-06-11 05:31:09 51°20.527 2°50.791 352.7 12.7 344 16.9
2007-06-11 05:31:14 51°20.544 2°50.784 352.7 12.6 344 17.1
2007-06-11 05:31:19 51°20.561 2°50.776 353 12.7 344 17.3
2007-06-11 05:31:24 51°20.578 2°50.769 353.1 12.7 345 17.6
2007-06-11 05:31:29 51°20.595 2°50.761 353.3 12.7 345 17.9
2007-06-11 05:31:34 51°20.613 2°50.754 353.3 12.7 345 18.1
2007-06-11 05:31:39 51°20.63 2°50.746 353.3 12.7 345 18.3
2007-06-11 05:31:44 51°20.647 2°50.739 353.1 12.7 344 18.7
2007-06-11 05:31:49 51°20.664 2°50.731 353.1 12.8 344 19
2007-06-11 05:31:54 51°20.681 2°50.723 353.1 12.8 344 19.1
2007-06-11 05:31:59 51°20.698 2°50.715 353 12.8 345 19.4
2007-06-11 05:32:04 51°20.715 2°50.708 353.4 12.8 345 19.6
2007-06-11 05:32:08 51°20.729 2°50.703 354.6 12.7 346 19.9
2007-06-11 05:32:14 51°20.749 2°50.695 355.5 12.7 347 20.1
2007-06-11 05:32:19 51°20.767 2°50.689 356.1 12.7 348 20.3
2007-06-11 05:32:24 51°20.784 2°50.684 356.7 12.8 349 20.3
2007-06-11 05:32:29 51°20.801 2°50.678 357.3 12.8 348 20.7
2007-06-11 05:32:34 51°20.819 2°50.673 357.4 12.8 349 20.9
2007-06-11 05:32:39 51°20.836 2°50.667 357.7 12.8 349 21.2
2007-06-11 05:32:44 51°20.854 2°50.662 357.7 12.8 349 21.4
2007-06-11 05:32:49 51°20.871 2°50.656 357.8 12.8 349 21.6
2007-06-11 05:32:54 51°20.889 2°50.651 357.4 12.8 349 21.8
2007-06-11 05:32:59 51°20.906 2°50.645 357.4 12.8 348 21.9
2007-06-11 05:33:04 51°20.923 2°50.64 357.4 12.8 349 22.1
2007-06-11 05:33:09 51°20.941 2°50.634 357.3 12.8 349 22.4
2007-06-11 05:33:15 51°20.962 2°50.628 357.8 12.8 349 22.5
2007-06-11 05:33:19 51°20.976 2°50.624 357.8 12.8 349 22.7
2007-06-11 05:33:24 51°20.993 2°50.618 357.8 12.8 349 22.8
2007-06-11 05:33:30 51°21.014 2°50.612 357.8 12.8 348 22.9
2007-06-11 05:33:35 51°21.031 2°50.606 357.4 12.8 348 22.9
2007-06-11 05:33:40 51°21.049 2°50.6 357.3 12.8 348 23.1
2007-06-11 05:33:45 51°21.066 2°50.594 357 12.8 348 23.2
2007-06-11 05:33:50 51°21.084 2°50.588 357 12.8 348 23.2
2007-06-11 05:33:55 51°21.101 2°50.581 356.7 12.9 347 23.3
2007-06-11 05:34:00 51°21.119 2°50.575 356.2 12.9 346 23.1
2007-06-11 05:34:05 51°21.136 2°50.566 354.6 12.9 344 23.1
2007-06-11 05:34:10 51°21.153 2°50.558 352.8 12.9 343 23.4
2007-06-11 05:34:15 51°21.17 2°50.548 352 13 341 23.3
2007-06-11 05:34:20 51°21.187 2°50.539 350.8 12.9 339 23.3
2007-06-11 05:34:25 51°21.203 2°50.526 347.8 13 335 23.2
2007-06-11 05:34:30 51°21.219 2°50.514 344.8 13 335 23.4
2007-06-11 05:34:35 51°21.235 2°50.5 342.8 13.1 332 23.2
2007-06-11 05:34:40 51°21.251 2°50.486 341.4 13.1 332 23.2
2007-06-11 05:34:45 51°21.267 2°50.471 340.5 13.1 330 23.1
2007-06-11 05:34:50 51°21.282 2°50.457 339.6 13.1 330 23.4
2007-06-11 05:34:55 51°21.298 2°50.442 338.9 13.2 329 23.3
2007-06-11 05:35:00 51°21.313 2°50.426 338 13.2 328 23.3
2007-06-11 05:35:05 51°21.329 2°50.411 336.6 13.2 327 23.2
2007-06-11 05:35:10 51°21.344 2°50.394 335.2 13.2 326 23.2
2007-06-11 05:35:15 51°21.359 2°50.378 334.2 13.2 325 23.5
2007-06-11 05:35:20 51°21.373 2°50.359 332.4 13.2 321 23.4
2007-06-11 05:35:25 51°21.387 2°50.341 330.4 13.2 320 23.3
2007-06-11 05:35:30 51°21.401 2°50.321 328.8 13.3 319 23
2007-06-11 05:35:35 51°21.414 2°50.301 327.1 13.3 318 23
2007-06-11 05:35:40 51°21.428 2°50.281 326.2 13.3 317 22.8
2007-06-11 05:35:45 51°21.442 2°50.261 325.7 13.4 317 22.9
2007-06-11 05:35:50 51°21.455 2°50.24 325.1 13.5 316 22.8
2007-06-11 05:35:55 51°21.469 2°50.22 324.8 13.5 316 22.7
2007-06-11 05:36:00 51°21.482 2°50.198 324.2 13.5 315 22.5
2007-06-11 05:36:05 51°21.495 2°50.177 323.9 13.5 316 22.5
2007-06-11 05:36:10 51°21.508 2°50.156 324.1 13.5 316 22.5
2007-06-11 05:36:15 51°21.521 2°50.135 323.9 13.5 315 22.5
2007-06-11 05:36:20 51°21.534 2°50.114 323.3 13.5 315 22.3
2007-06-11 05:36:25 51°21.547 2°50.092 322.9 13.5 314 22.3
2007-06-11 05:36:30 51°21.561 2°50.071 322.9 13.5 315 22.3
2007-06-11 05:36:35 51°21.574 2°50.051 322.9 13.4 316 22.2
2007-06-11 05:36:40 51°21.587 2°50.03 323.4 13.3 316 22.1
2007-06-11 05:36:45 51°21.6 2°50.01 323.6 13.2 316 22
2007-06-11 05:36:50 51°21.613 2°49.989 323.3 13.2 315 21.9
2007-06-11 05:36:55 51°21.626 2°49.969 323 13.1 315 21.9
2007-06-11 05:37:00 51°21.639 2°49.949 322.9 13.1 316 21.9
2007-06-11 05:37:05 51°21.652 2°49.928 322.9 13.1 315 22
2007-06-11 05:37:10 51°21.665 2°49.908 323 13 316 22
2007-06-11 05:37:15 51°21.677 2°49.888 323.1 13 315 22.2
2007-06-11 05:37:20 51°21.69 2°49.867 323 13 316 22.3
2007-06-11 05:37:25 51°21.703 2°49.847 323.1 13 316 22.3
2007-06-11 05:37:30 51°21.716 2°49.827 323.2 13 316 22.5
2007-06-11 05:37:35 51°21.729 2°49.807 323.4 13 316 22.6
2007-06-11 05:37:40 51°21.742 2°49.787 323.6 13 316 22.5
2007-06-11 05:37:45 51°21.755 2°49.767 323.6 13 316 22.7
2007-06-11 05:37:50 51°21.768 2°49.747 323.1 13.1 315 22.7
2007-06-11 05:37:55 51°21.781 2°49.727 322.9 13.1 315 23
2007-06-11 05:38:00 51°21.794 2°49.706 322.5 13.1 315 22.8
2007-06-11 05:38:05 51°21.807 2°49.686 322.4 13.1 316 23.1
2007-06-11 05:38:10 51°21.82 2°49.666 322.9 13.1 316 23
2007-06-11 05:38:15 51°21.833 2°49.646 323.3 13.1 316 23.1
2007-06-11 05:38:20 51°21.846 2°49.626 323.2 13.1 316 23.2
2007-06-11 05:38:25 51°21.86 2°49.606 323.3 13.1 316 23.3
2007-06-11 05:38:29 51°21.87 2°49.59 323.4 13 317 23.3
2007-06-11 05:38:35 51°21.886 2°49.566 323.9 13.1 317 23.4
2007-06-11 05:38:40 51°21.899 2°49.547 324.1 13 318 23.4
2007-06-11 05:38:45 51°21.912 2°49.527 324.3 13 317 23.4
2007-06-11 05:38:50 51°21.926 2°49.508 324.3 13 318 23.5
2007-06-11 05:38:55 51°21.939 2°49.488 324.3 13 317 23.4
2007-06-11 05:39:00 51°21.952 2°49.469 323.9 13 317 23.2
2007-06-11 05:39:05 51°21.965 2°49.449 323.7 13 317 23.4
2007-06-11 05:39:10 51°21.978 2°49.43 323.8 12.9 318 23.4
2007-06-11 05:39:15 51°21.991 2°49.41 323.3 13 316 23.4
2007-06-11 05:39:20 51°22.004 2°49.389 322.1 13 315 23.5
2007-06-11 05:39:25 51°22.016 2°49.369 321.4 13 314 23.5
2007-06-11 05:39:30 51°22.029 2°49.349 320.8 13 315 23.4
2007-06-11 05:39:35 51°22.042 2°49.328 320.8 13 314 23.3
2007-06-11 05:39:40 51°22.055 2°49.308 320.8 13 315 23.3
2007-06-11 05:39:45 51°22.067 2°49.287 320.6 13 314 23.3
2007-06-11 05:39:50 51°22.079 2°49.266 320.1 12.9 314 23.4
2007-06-11 05:39:55 51°22.092 2°49.246 320 13 314 23.5
2007-06-11 05:40:00 51°22.105 2°49.225 320.1 13 314 23.4
2007-06-11 05:40:05 51°22.117 2°49.205 320.2 13 314 23.3
2007-06-11 05:40:10 51°22.13 2°49.184 320.6 13 314 23.4
2007-06-11 05:40:15 51°22.143 2°49.164 320.8 13 315 23.5
2007-06-11 05:40:20 51°22.155 2°49.143 321.1 13 315 23.4
2007-06-11 05:40:25 51°22.167 2°49.122 320.8 13 314 23.3
2007-06-11 05:40:30 51°22.18 2°49.102 320.3 13 314 23.2
2007-06-11 05:40:35 51°22.193 2°49.081 320 13 314 23.5
2007-06-11 05:40:40 51°22.205 2°49.061 320.3 13 314 23.2
2007-06-11 05:40:45 51°22.218 2°49.04 320.3 13 314 23.1
2007-06-11 05:40:50 51°22.231 2°49.02 320.3 13 315 23.3
2007-06-11 05:40:55 51°22.243 2°48.999 320.3 13 315 23.1
2007-06-11 05:41:00 51°22.256 2°48.978 320.5 13 314 22.7
2007-06-11 05:41:05 51°22.268 2°48.957 320 13 313 22.6
2007-06-11 05:41:10 51°22.281 2°48.936 319.7 13 313 22.2
2007-06-11 05:41:15 51°22.293 2°48.915 319.8 13 313 22
2007-06-11 05:41:20 51°22.305 2°48.894 319.9 13 313 21.3
2007-06-11 05:41:25 51°22.317 2°48.873 319.9 13 314 21
2007-06-11 05:41:30 51°22.33 2°48.853 320.4 12.9 314 20.3
2007-06-11 05:41:35 51°22.342 2°48.832 320.6 12.9 314 19.7
2007-06-11 05:41:40 51°22.355 2°48.812 321 12.9 315 18.6
2007-06-11 05:41:45 51°22.368 2°48.792 321.3 12.9 315 20.3
2007-06-11 05:41:50 51°22.38 2°48.772 320.9 12.8 315 22.4
2007-06-11 05:41:55 51°22.393 2°48.752 321.2 12.9 314 23.2
2007-06-11 05:42:00 51°22.405 2°48.731 320.9 12.9 314 23.5
2007-06-11 05:42:05 51°22.418 2°48.711 320.9 12.9 314 23.5
2007-06-11 05:42:10 51°22.43 2°48.69 320.9 12.9 314 23.3
2007-06-11 05:42:15 51°22.443 2°48.67 321 12.9 314 22.8
2007-06-11 05:42:20 51°22.455 2°48.65 321.1 12.9 315 22.1
2007-06-11 05:42:25 51°22.468 2°48.629 321.1 12.9 314 21.2
2007-06-11 05:42:30 51°22.48 2°48.608 320.8 12.9 314 19.4
2007-06-11 05:42:35 51°22.492 2°48.588 320.7 12.8 313 17.6
2007-06-11 05:42:40 51°22.504 2°48.567 320.8 12.8 313 16.5
2007-06-11 05:42:45 51°22.516 2°48.546 320.7 12.8 314 16.3
2007-06-11 05:42:50 51°22.529 2°48.526 320.8 12.7 314 16.7
2007-06-11 05:42:55 51°22.541 2°48.505 321.3 12.8 314 17.1
2007-06-11 05:43:00 51°22.553 2°48.485 321.4 12.7 314 17.4
2007-06-11 05:43:05 51°22.565 2°48.464 321.8 12.7 314 17.8
2007-06-11 05:43:10 51°22.576 2°48.443 320.2 12.8 311 17.9
2007-06-11 05:43:15 51°22.588 2°48.421 318.7 12.8 311 18.4
2007-06-11 05:43:20 51°22.599 2°48.399 317.6 12.8 309 18.2
2007-06-11 05:43:25 51°22.61 2°48.377 316.4 12.9 308 18.2
2007-06-11 05:43:30 51°22.621 2°48.354 315.6 12.9 307 18.1
2007-06-11 05:43:35 51°22.631 2°48.331 315 12.9 307 18
2007-06-11 05:43:40 51°22.642 2°48.308 314.7 12.9 307 18.1
2007-06-11 05:43:45 51°22.652 2°48.285 314.1 12.9 306 18.2
2007-06-11 05:43:50 51°22.663 2°48.261 314.2 12.9 306 18.3
2007-06-11 05:43:55 51°22.673 2°48.238 314 12.9 306 18.5
2007-06-11 05:44:00 51°22.684 2°48.215 314.2 13 307 18.5
2007-06-11 05:44:05 51°22.695 2°48.192 314.5 12.9 307 18.6
2007-06-11 05:44:10 51°22.706 2°48.169 314.7 13 306 18.8
2007-06-11 05:44:15 51°22.716 2°48.147 314.6 13 307 18.7
2007-06-11 05:44:20 51°22.727 2°48.123 314.9 13 307 19
2007-06-11 05:44:25 51°22.738 2°48.1 314.9 13 307 18.8
2007-06-11 05:44:30 51°22.749 2°48.077 314.9 13 307 18.5
2007-06-11 05:44:35 51°22.759 2°48.054 314.8 12.9 307 18.2
2007-06-11 05:44:40 51°22.77 2°48.031 314.9 13 307 18.6
2007-06-11 05:44:45 51°22.781 2°48.008 314.8 13 307 18.3
2007-06-11 05:44:50 51°22.792 2°47.985 314.7 13 307 18.5
2007-06-11 05:44:55 51°22.803 2°47.962 315 13.1 307 18.8
2007-06-11 05:45:00 51°22.814 2°47.939 315 13 307 18.6
2007-06-11 05:45:05 51°22.824 2°47.916 315 13.1 307 15.9
2007-06-11 05:45:10 51°22.835 2°47.892 315.2 13.1 306 17.1
2007-06-11 05:45:15 51°22.845 2°47.868 314.5 13.1 305 18.1
2007-06-11 05:45:20 51°22.856 2°47.844 313.3 13.2 304 18.8
2007-06-11 05:45:25 51°22.866 2°47.82 312.5 13.2 303 18.9
2007-06-11 05:45:30 51°22.876 2°47.795 311.8 13.2 304 19
2007-06-11 05:45:35 51°22.886 2°47.771 311.3 13.2 303 18.9
2007-06-11 05:45:40 51°22.896 2°47.747 311.2 13.1 304 19.3
2007-06-11 05:45:45 51°22.906 2°47.722 311.5 13.2 303 19.6
2007-06-11 05:45:50 51°22.916 2°47.697 311.5 13.2 303 19.6
2007-06-11 05:45:55 51°22.926 2°47.673 311.1 13.2 303 20.2
2007-06-11 05:46:00 51°22.936 2°47.648 310.4 13.2 302 20.3
2007-06-11 05:46:05 51°22.946 2°47.623 310.3 13.2 303 20.2
2007-06-11 05:46:10 51°22.956 2°47.598 310.5 13.3 303 20.7
2007-06-11 05:46:15 51°22.966 2°47.574 310.9 13.2 304 20.3
2007-06-11 05:46:20 51°22.976 2°47.549 311.1 13.2 303 18.4
2007-06-11 05:46:25 51°22.986 2°47.525 311 13.2 303 19
2007-06-11 05:46:30 51°22.994 2°47.498 307.7 13.2 297 20.2
2007-06-11 05:46:35 51°23.002 2°47.472 304.8 13.2 296 20.9
2007-06-11 05:46:40 51°23.009 2°47.445 302.6 13.3 293 20.6
2007-06-11 05:46:45 51°23.016 2°47.418 300.7 13.3 293 18.4
2007-06-11 05:46:50 51°23.022 2°47.39 298.9 13.3 290 18.4
2007-06-11 05:46:55 51°23.028 2°47.362 296.9 13.4 289 20.4
2007-06-11 05:47:00 51°23.034 2°47.333 295.4 13.4 287 21.1
2007-06-11 05:47:05 51°23.039 2°47.305 294.6 13.4 287 21.7
2007-06-11 05:47:10 51°23.044 2°47.276 293.7 13.4 286 21.9
2007-06-11 05:47:15 51°23.05 2°47.247 293.5 13.4 286 21.9
2007-06-11 05:47:20 51°23.055 2°47.219 293 13.5 286 21.6
2007-06-11 05:47:25 51°23.06 2°47.19 292.5 13.5 286 20.6
2007-06-11 05:47:30 51°23.064 2°47.161 292.4 13.5 285 20.2
2007-06-11 05:47:35 51°23.07 2°47.132 292.3 13.6 286 20.2
2007-06-11 05:47:40 51°23.074 2°47.103 292.4 13.5 285 19.7
2007-06-11 05:47:45 51°23.079 2°47.074 292.4 13.5 285 18.4
2007-06-11 05:47:50 51°23.084 2°47.045 292.3 13.5 285 17
2007-06-11 05:47:55 51°23.089 2°47.016 292.5 13.5 286 19.9
2007-06-11 05:48:00 51°23.094 2°46.987 292.5 13.5 285 21.4
2007-06-11 05:48:05 51°23.1 2°46.958 292.7 13.5 286 22.5
2007-06-11 05:48:10 51°23.105 2°46.93 293 13.5 286 22.6
2007-06-11 05:48:15 51°23.11 2°46.901 293.5 13.5 287 23.2
2007-06-11 05:48:20 51°23.116 2°46.872 293.6 13.5 287 23.3
2007-06-11 05:48:25 51°23.121 2°46.844 293.4 13.5 287 23.1
2007-06-11 05:48:30 51°23.127 2°46.815 293.8 13.5 287 22.6
2007-06-11 05:48:35 51°23.132 2°46.787 293.7 13.4 287 20.7
2007-06-11 05:48:40 51°23.138 2°46.758 293.6 13.4 287 19.1
2007-06-11 05:48:45 51°23.143 2°46.73 293.1 13.4 286 21.8
2007-06-11 05:48:50 51°23.148 2°46.701 293 13.4 286 23
2007-06-11 05:48:55 51°23.154 2°46.673 292.5 13.4 287 23.3
2007-06-11 05:49:00 51°23.158 2°46.644 292.9 13.4 286 23.7
2007-06-11 05:49:05 51°23.164 2°46.616 292.5 13.4 286 24
2007-06-11 05:49:09 51°23.168 2°46.593 292.5 13.4 286 24.4
2007-06-11 05:49:15 51°23.174 2°46.559 292.7 13.4 287 24.5
2007-06-11 05:49:20 51°23.18 2°46.53 293.3 13.4 287 25.1
2007-06-11 05:49:25 51°23.185 2°46.502 293.5 13.4 287 25
2007-06-11 05:49:30 51°23.191 2°46.474 293.4 13.4 287 23.5
2007-06-11 05:49:35 51°23.196 2°46.445 293.4 13.4 288 21
2007-06-11 05:49:40 51°23.202 2°46.417 293.9 13.3 288 22.1
2007-06-11 05:49:45 51°23.208 2°46.389 294.1 13.4 289 24.5
2007-06-11 05:49:50 51°23.214 2°46.361 294.4 13.4 288 25.3
2007-06-11 05:49:55 51°23.22 2°46.333 293.8 13.4 288 25.2
2007-06-11 05:50:00 51°23.225 2°46.305 293.6 13.3 287 23.4
2007-06-11 05:50:05 51°23.23 2°46.277 293.1 13.2 286 24.8
2007-06-11 05:50:10 51°23.234 2°46.248 291.2 13.2 283 25.4
2007-06-11 05:50:15 51°23.237 2°46.219 287.5 13.4 280 25.9
2007-06-11 05:50:20 51°23.24 2°46.19 285.5 13.3 278 25.8
2007-06-11 05:50:25 51°23.242 2°46.16 283.6 13.4 276 23.5
2007-06-11 05:50:30 51°23.244 2°46.13 282.4 13.4 277 24.6
2007-06-11 05:50:35 51°23.245 2°46.101 280.9 13.5 274 25.2
2007-06-11 05:50:40 51°23.247 2°46.071 280.2 13.6 275 25.7
2007-06-11 05:50:45 51°23.248 2°46.041 279.8 13.5 274 25.7
2007-06-11 05:50:50 51°23.249 2°46.011 279.4 13.6 274 26
2007-06-11 05:50:55 51°23.25 2°45.981 279.3 13.6 273 26.4
2007-06-11 05:51:00 51°23.251 2°45.95 279.2 13.6 273 26
2007-06-11 05:51:05 51°23.253 2°45.92 279 13.6 273 25.8
2007-06-11 05:51:10 51°23.254 2°45.89 279.1 13.6 274 25.1
2007-06-11 05:51:15 51°23.255 2°45.86 279.4 13.7 274 25.3
2007-06-11 05:51:20 51°23.256 2°45.83 279.3 13.7 274 24.5
2007-06-11 05:51:25 51°23.258 2°45.8 279.8 13.7 274 25.7
2007-06-11 05:51:30 51°23.259 2°45.769 279.8 13.7 273 26.7
2007-06-11 05:51:35 51°23.26 2°45.739 279.7 13.7 274 27.2
2007-06-11 05:51:40 51°23.261 2°45.709 279.8 13.7 274 26.8
2007-06-11 05:51:45 51°23.262 2°45.678 279.8 13.7 274 25.9
2007-06-11 05:51:50 51°23.264 2°45.648 279.7 13.7 274 26.4
2007-06-11 05:51:55 51°23.265 2°45.618 279.8 13.7 274 27.6
2007-06-11 05:52:00 51°23.266 2°45.587 279.5 13.8 274 27.8
2007-06-11 05:52:05 51°23.268 2°45.557 280.5 13.7 275 27.7
2007-06-11 05:52:10 51°23.271 2°45.527 282.3 13.7 277 26.6
2007-06-11 05:52:15 51°23.274 2°45.497 284.5 13.7 280 27.9
2007-06-11 05:52:20 51°23.277 2°45.467 285.8 13.7 280 27.3
2007-06-11 05:52:25 51°23.281 2°45.437 287.4 13.7 281 27.4
2007-06-11 05:52:30 51°23.285 2°45.408 288.4 13.6 282 26.8
2007-06-11 05:52:35 51°23.289 2°45.378 289 13.7 282 27.4
2007-06-11 05:52:40 51°23.293 2°45.349 289.2 13.6 283 27.7
2007-06-11 05:52:45 51°23.298 2°45.319 289.8 13.6 283 27.5
2007-06-11 05:52:50 51°23.302 2°45.29 290.2 13.6 283 27.2
2007-06-11 05:52:55 51°23.306 2°45.26 290.3 13.6 284 27.4
2007-06-11 05:53:00 51°23.311 2°45.231 290.6 13.6 283 26.6
2007-06-11 05:53:05 51°23.315 2°45.201 290.8 13.6 284 27.1
2007-06-11 05:53:10 51°23.32 2°45.172 290.9 13.6 284 27.3
2007-06-11 05:53:15 51°23.324 2°45.142 290.8 13.6 283 26.5
2007-06-11 05:53:20 51°23.329 2°45.113 290.7 13.6 284 27.7
2007-06-11 05:53:25 51°23.333 2°45.084 290.7 13.6 283 27.8
2007-06-11 05:53:30 51°23.337 2°45.054 290.4 13.6 283 27.6
2007-06-11 05:53:35 51°23.342 2°45.025 290.3 13.6 283 27.1
2007-06-11 05:53:40 51°23.346 2°44.995 290.3 13.6 283 27.4
2007-06-11 05:53:45 51°23.35 2°44.966 290.5 13.6 283 27.3
2007-06-11 05:53:50 51°23.354 2°44.936 290.4 13.6 283 27.6
2007-06-11 05:53:55 51°23.359 2°44.907 290.1 13.6 283 25.6
2007-06-11 05:54:00 51°23.363 2°44.877 290.2 13.7 283 27.3
2007-06-11 05:54:05 51°23.367 2°44.848 290.3 13.7 284 26.5
2007-06-11 05:54:10 51°23.372 2°44.818 290.3 13.7 283 27.1
2007-06-11 05:54:15 51°23.376 2°44.789 290.8 13.7 284 26
2007-06-11 05:54:20 51°23.381 2°44.759 290.8 13.7 284 26.3
2007-06-11 05:54:25 51°23.386 2°44.73 291 13.7 284 27.5
2007-06-11 05:54:30 51°23.39 2°44.7 290.5 13.7 283 26.1
2007-06-11 05:54:35 51°23.394 2°44.67 290.3 13.7 284 26.4
2007-06-11 05:54:40 51°23.399 2°44.641 290.3 13.7 284 27.1
2007-06-11 05:54:45 51°23.403 2°44.611 290.5 13.7 284 25.7
2007-06-11 05:54:50 51°23.408 2°44.582 290.5 13.8 284 27.5
2007-06-11 05:54:55 51°23.412 2°44.552 290.8 13.8 283 28.1
2007-06-11 05:55:00 51°23.417 2°44.522 290.4 13.8 284 27.4
2007-06-11 05:55:05 51°23.421 2°44.492 290.5 13.8 284 26.6
2007-06-11 05:55:10 51°23.426 2°44.463 290.5 13.8 284 27.6
2007-06-11 05:55:15 51°23.43 2°44.433 290.4 13.8 284 27.9
2007-06-11 05:55:20 51°23.435 2°44.403 290.2 13.9 284 27.7
2007-06-11 05:55:25 51°23.439 2°44.373 290.5 13.9 284 26.3
2007-06-11 05:55:30 51°23.444 2°44.344 290.4 13.8 284 26.8
2007-06-11 05:55:35 51°23.448 2°44.314 290.5 13.6 284 28
2007-06-11 05:55:40 51°23.453 2°44.286 290.8 13.3 285 27.3
2007-06-11 05:55:45 51°23.459 2°44.258 291.7 13.1 287 27.2
2007-06-11 05:55:50 51°23.467 2°44.233 296.8 12.8 295 26.3
2007-06-11 05:55:55 51°23.476 2°44.21 303.5 12.6 301 27
2007-06-11 05:56:00 51°23.487 2°44.188 312.5 12.4 308 27.4
2007-06-11 05:56:05 51°23.497 2°44.166 315.3 12.4 307 27.4
2007-06-11 05:56:10 51°23.508 2°44.144 316.4 12.5 308 27.5
2007-06-11 05:56:15 51°23.519 2°44.122 316.6 12.5 307 27.7
2007-06-11 05:56:20 51°23.529 2°44.101 315.8 12.2 307 27.3
2007-06-11 05:56:25 51°23.538 2°44.079 315 12 305 27.6
2007-06-11 05:56:30 51°23.548 2°44.058 313.4 11.8 304 27.4
2007-06-11 05:56:35 51°23.556 2°44.036 311.6 11.6 303 27.4
2007-06-11 05:56:40 51°23.567 2°44.017 312.6 11.3 310 27.3
2007-06-11 05:56:45 51°23.577 2°44 317.5 11 314 25.4
2007-06-11 05:56:50 51°23.589 2°43.985 323.8 10.6 320 23.4
2007-06-11 05:56:55 51°23.6 2°43.973 330.4 9.9 325 24.1
2007-06-11 05:57:00 51°23.611 2°43.964 336.1 8.9 331 24.4
2007-06-11 05:57:05 51°23.621 2°43.957 342.6 8.2 335 24.7
2007-06-11 05:57:10 51°23.631 2°43.952 349.6 7.6 341 24.4
2007-06-11 05:57:15 51°23.64 2°43.949 354.9 7 348 24.2
2007-06-11 05:57:20 51°23.649 2°43.947 0.1 6.5 352 23.9
2007-06-11 05:57:25 51°23.658 2°43.946 4.6 6.3 355 23.2
2007-06-11 05:57:30 51°23.666 2°43.946 8.7 5.9 359 23.4
2007-06-11 05:57:35 51°23.674 2°43.947 12.6 5.8 4 24.7
2007-06-11 05:57:40 51°23.682 2°43.949 16.6 5.9 10 26.1
2007-06-11 05:57:45 51°23.69 2°43.953 21.1 5.9 15 26.9
2007-06-11 05:57:50 51°23.697 2°43.958 26.1 5.9 21 27.5
2007-06-11 05:57:55 51°23.705 2°43.964 31.4 5.9 27 27.4
2007-06-11 05:58:00 51°23.711 2°43.971 37.3 5.8 35 26.9
2007-06-11 05:58:05 51°23.717 2°43.98 43.1 5.8 40 27.3
2007-06-11 05:58:10 51°23.723 2°43.99 49.3 5.8 46 27.2
2007-06-11 05:58:15 51°23.727 2°44 55.1 5.9 52 26.9
2007-06-11 05:58:20 51°23.732 2°44.011 60.1 6 54 26.7
2007-06-11 05:58:25 51°23.737 2°44.022 61.5 6 56 26.2
2007-06-11 05:58:30 51°23.742 2°44.034 61.6 6.1 55 25.1
2007-06-11 05:58:35 51°23.747 2°44.044 59.7 6.1 52 22.8
2007-06-11 05:58:40 51°23.753 2°44.054 55.8 5.9 48 24.7
2007-06-11 05:58:45 51°23.759 2°44.063 52.8 5.8 45 26.5
2007-06-11 05:58:50 51°23.764 2°44.072 49.9 5.7 45 27.5
2007-06-11 05:58:55 51°23.77 2°44.08 48 5.6 41 26.9
2007-06-11 05:59:00 51°23.775 2°44.088 47.3 5.5 41 26.8
2007-06-11 05:59:05 51°23.781 2°44.095 46.5 5.4 39 27.3
2007-06-11 05:59:10 51°23.787 2°44.102 45.7 5.1 40 26.6
2007-06-11 05:59:15 51°23.792 2°44.109 45 4.9 38 26.3
2007-06-11 05:59:20 51°23.798 2°44.115 44.2 4.7 37 27.1
2007-06-11 05:59:25 51°23.803 2°44.121 43.9 4.6 36 27.3
2007-06-11 05:59:30 51°23.808 2°44.127 43.5 4.4 37 26.7
2007-06-11 05:59:35 51°23.812 2°44.133 43.9 4.3 37 27.1
2007-06-11 05:59:40 51°23.817 2°44.138 44.4 4.1 38 26.9
2007-06-11 05:59:45 51°23.821 2°44.144 45.7 3.9 40 26.8
2007-06-11 05:59:50 51°23.825 2°44.149 47 3.8 41 26.2
2007-06-11 05:59:55 51°23.829 2°44.155 48.5 3.7 43 25.8
2007-06-11 06:00:00 51°23.832 2°44.16 50.3 3.5 46 25.6
2007-06-11 06:00:05 51°23.835 2°44.166 52.3 3.4 47 24
2007-06-11 06:00:10 51°23.838 2°44.171 54.8 3.2 50 23.2
2007-06-11 06:00:15 51°23.841 2°44.177 56.6 3.2 51 24.7
2007-06-11 06:00:20 51°23.843 2°44.182 57.7 3.1 53 25.9
2007-06-11 06:00:25 51°23.845 2°44.187 58.8 3 53 26.2
2007-06-11 06:00:30 51°23.848 2°44.193 59.3 2.9 53 27.4
2007-06-11 06:00:35 51°23.85 2°44.198 59.5 2.9 53 27.7
2007-06-11 06:00:40 51°23.852 2°44.202 59.1 2.7 51 27.9
2007-06-11 06:00:45 51°23.855 2°44.207 58 2.7 50 28.1
2007-06-11 06:00:50 51°23.857 2°44.211 56.3 2.6 49 27.6
2007-06-11 06:00:55 51°23.859 2°44.215 53.9 2.5 45 28
2007-06-11 06:01:00 51°23.862 2°44.219 51 2.4 42 28.1
2007-06-11 06:01:05 51°23.865 2°44.222 48.6 2.4 38 27.9
2007-06-11 06:01:10 51°23.867 2°44.225 45.7 2.3 39 27.8
2007-06-11 06:01:15 51°23.87 2°44.228 43.6 2.3 35 28
2007-06-11 06:01:20 51°23.872 2°44.231 42.8 2.3 35 27.8
2007-06-11 06:01:25 51°23.875 2°44.234 42.8 2.3 34 27.9
2007-06-11 06:01:30 51°23.877 2°44.237 43.8 2.3 38 27.8
2007-06-11 06:01:35 51°23.88 2°44.24 45.9 2.4 39 27.9
2007-06-11 06:01:40 51°23.882 2°44.244 49.3 2.4 46 28.1
2007-06-11 06:01:45 51°23.884 2°44.248 53.6 2.4 48 27.8
2007-06-11 06:01:50 51°23.886 2°44.253 58.3 2.4 55 27.6
2007-06-11 06:01:55 51°23.888 2°44.257 62.1 2.4 56 27.5
2007-06-11 06:02:00 51°23.89 2°44.262 64.6 2.4 59 27.6
2007-06-11 06:02:05 51°23.892 2°44.266 65.1 2.4 57 27.4
2007-06-11 06:02:10 51°23.894 2°44.271 64.4 2.4 57 27.3
2007-06-11 06:02:15 51°23.896 2°44.275 62.4 2.4 53 27.6
2007-06-11 06:02:20 51°23.898 2°44.279 59 2.4 47 27.7
2007-06-11 06:02:25 51°23.9 2°44.282 54.8 2.4 44 27.5
2007-06-11 06:02:30 51°23.903 2°44.286 50 2.4 38 27.3
2007-06-11 06:02:35 51°23.906 2°44.289 45.3 2.4 35 27.2
2007-06-11 06:02:40 51°23.909 2°44.291 40.7 2.5 29 27.4
2007-06-11 06:02:45 51°23.912 2°44.294 37.7 2.5 29 28.2
2007-06-11 06:02:50 51°23.915 2°44.297 36.2 2.6 27 28.5
2007-06-11 06:02:55 51°23.918 2°44.3 36.7 2.6 30 28
2007-06-11 06:03:00 51°23.921 2°44.302 39.1 2.6 31 26.5
2007-06-11 06:03:05 51°23.924 2°44.306 42.4 2.5 35 25
2007-06-11 06:03:09 51°23.926 2°44.308 46.1 2.5 39 24.4
2007-06-11 06:03:15 51°23.929 2°44.313 50.2 2.5 42 27.2
2007-06-11 06:03:20 51°23.931 2°44.317 54.6 2.3 48 26
2007-06-11 06:03:25 51°23.933 2°44.32 58.7 2.2 50 25
2007-06-11 06:03:30 51°23.935 2°44.324 61.6 2.1 52 25.3
2007-06-11 06:03:35 51°23.936 2°44.327 63.7 1.9 55 25.7
2007-06-11 06:03:40 51°23.938 2°44.331 65.3 1.9 56 25.6
2007-06-11 06:03:45 51°23.939 2°44.334 65.7 1.8 57 26.1
2007-06-11 06:03:50 51°23.94 2°44.338 65.3 1.8 55 26.2
2007-06-11 06:03:55 51°23.942 2°44.341 64.2 1.7 54 25.9
2007-06-11 06:04:00 51°23.943 2°44.343 63 1.7 51 26.7
2007-06-11 06:04:05 51°23.945 2°44.346 61.1 1.7 50 27
2007-06-11 06:04:10 51°23.946 2°44.349 58.7 1.7 47 26.5
2007-06-11 06:04:15 51°23.948 2°44.351 56 1.6 44 26.8
2007-06-11 06:04:20 51°23.949 2°44.354 53.2 1.6 39 26.7
2007-06-11 06:04:25 51°23.951 2°44.355 50.3 1.6 36 27
2007-06-11 06:04:30 51°23.953 2°44.357 47.1 1.5 34 27.8
2007-06-11 06:04:35 51°23.955 2°44.359 44.2 1.5 29 27.8
2007-06-11 06:04:40 51°23.957 2°44.36 41.3 1.5 25 27.5
2007-06-11 06:04:45 51°23.959 2°44.362 38.2 1.5 22 27.7
2007-06-11 06:04:50 51°23.961 2°44.363 35.4 1.5 21 28.2
2007-06-11 06:04:55 51°23.962 2°44.364 32.4 1.5 16 27.7
2007-06-11 06:05:00 51°23.964 2°44.364 29.6 1.4 10 28.2
2007-06-11 06:05:05 51°23.966 2°44.364 26.7 1.5 8 27.8
2007-06-11 06:05:10 51°23.968 2°44.364 23.7 1.4 5 28.1
2007-06-11 06:05:15 51°23.97 2°44.364 20.4 1.4 359 28.2
2007-06-11 06:05:20 51°23.972 2°44.364 18 1.3 358 28
2007-06-11 06:05:25 51°23.974 2°44.364 15.9 1.4 350 27.7
2007-06-11 06:05:30 51°23.976 2°44.363 14 1.3 348 27.8
2007-06-11 06:05:35 51°23.978 2°44.362 12.5 1.4 347 27.8
2007-06-11 06:05:40 51°23.979 2°44.362 11.3 1.2 349 27.8
2007-06-11 06:05:45 51°23.981 2°44.361 10.3 1.2 346 27.9
2007-06-11 06:05:50 51°23.982 2°44.36 9.4 1.2 344 28.1
2007-06-11 06:05:55 51°23.984 2°44.36 8.8 1.2 343 28.1
2007-06-11 06:06:00 51°23.985 2°44.359 8.2 1.2 340 27.9
2007-06-11 06:06:05 51°23.987 2°44.358 7.8 1.2 339 27.9
2007-06-11 06:06:10 51°23.988 2°44.357 7.4 1.2 337 27.8
2007-06-11 06:06:15 51°23.99 2°44.356 7.1 1.1 337 27.9
2007-06-11 06:06:20 51°23.991 2°44.355 6.7 1.1 336 27.5
2007-06-11 06:06:25 51°23.993 2°44.354 6.5 1.1 336 27.6
2007-06-11 06:06:30 51°23.994 2°44.353 6.4 1.1 335 27.7
2007-06-11 06:06:35 51°23.995 2°44.352 6.3 1 334 27.9
2007-06-11 06:06:40 51°23.996 2°44.351 6.2 1 333 27.9
2007-06-11 06:06:45 51°23.998 2°44.35 6.2 1 332 27.8
2007-06-11 06:06:50 51°23.999 2°44.349 6.3 1 330 27.8
2007-06-11 06:06:55 51°24 2°44.348 6.5 1 331 27.9
2007-06-11 06:07:00 51°24.001 2°44.347 6.7 1 328 28
2007-06-11 06:07:05 51°24.002 2°44.346 7.1 0.9 329 28
2007-06-11 06:07:10 51°24.003 2°44.344 7.5 1 327 27.9
2007-06-11 06:07:15 51°24.005 2°44.343 8 0.9 328 28
2007-06-11 06:07:20 51°24.006 2°44.342 8.6 0.9 328 28
2007-06-11 06:07:25 51°24.006 2°44.341 9.2 0.9 331 28
2007-06-11 06:07:30 51°24.007 2°44.34 9.6 0.8 327 28.1
2007-06-11 06:07:35 51°24.008 2°44.339 10.1 0.8 328 28.2
2007-06-11 06:07:40 51°24.009 2°44.338 10.7 0.8 323 28.2
2007-06-11 06:07:45 51°24.01 2°44.337 11.1 0.7 327 28.3
2007-06-11 06:07:50 51°24.01 2°44.336 11.6 0.7 322 28.3
2007-06-11 06:07:55 51°24.011 2°44.335 12.2 0.7 325 28.3
2007-06-11 06:08:00 51°24.012 2°44.334 12.9 0.7 324 28.3
2007-06-11 06:08:05 51°24.013 2°44.333 13.4 0.7 321 28.3
2007-06-11 06:08:10 51°24.013 2°44.332 13.8 0.7 319 28.3
2007-06-11 06:08:15 51°24.014 2°44.331 14.1 0.6 321 28.1
2007-06-11 06:08:20 51°24.015 2°44.33 14.7 0.6 319 28.1
2007-06-11 06:08:25 51°24.016 2°44.329 15.2 0.7 320 27.8
2007-06-11 06:08:30 51°24.016 2°44.328 15.6 0.6 322 27.8
2007-06-11 06:08:35 51°24.017 2°44.327 15.9 0.7 317 27.8
2007-06-11 06:08:40 51°24.018 2°44.326 16.3 0.7 328 27.8
2007-06-11 06:08:45 51°24.019 2°44.325 15.7 0.8 325 27.7
2007-06-11 06:08:50 51°24.02 2°44.325 14.7 0.8 333 27.7
2007-06-11 06:08:55 51°24.021 2°44.323 13.3 0.9 331 27.8
2007-06-11 06:09:00 51°24.022 2°44.322 11.7 0.9 337 27.8
2007-06-11 06:09:05 51°24.023 2°44.322 9.3 1 331 27.8
2007-06-11 06:09:09 51°24.024 2°44.321 6.9 1 336 27.7
2007-06-11 06:09:15 51°24.026 2°44.319 4.4 1.1 329 27.7
2007-06-11 06:09:20 51°24.027 2°44.318 1.5 1.2 332 27.7
2007-06-11 06:09:25 51°24.029 2°44.317 358.7 1.3 329 27.7
2007-06-11 06:09:30 51°24.03 2°44.315 355.4 1.3 328 27.7
2007-06-11 06:09:35 51°24.032 2°44.313 352.9 1.4 325 27.7
2007-06-11 06:09:40 51°24.034 2°44.311 349.1 1.5 323 27.2
2007-06-11 06:09:45 51°24.035 2°44.309 345.8 1.5 322 27.2
2007-06-11 06:09:50 51°24.037 2°44.307 342.5 1.6 320 27.3
2007-06-11 06:09:55 51°24.039 2°44.304 340 1.7 317 27.3
2007-06-11 06:10:00 51°24.04 2°44.301 335.9 1.7 314 27.2
2007-06-11 06:10:05 51°24.042 2°44.299 332.5 1.7 311 27.1
2007-06-11 06:10:10 51°24.043 2°44.296 329.2 1.8 309 27.2
2007-06-11 06:10:15 51°24.045 2°44.292 325.7 1.8 307 27.3